createdAt,value
2022-12-18T00:02:18.808Z,-4.82
2022-12-18T00:04:41.352Z,-4.89
2022-12-18T00:07:03.985Z,-4.84
2022-12-18T00:09:26.303Z,-4.84
2022-12-18T00:14:38.176Z,-4.83
2022-12-18T00:17:04.076Z,-4.83
2022-12-18T00:19:26.433Z,-4.86
2022-12-18T00:21:48.738Z,-4.89
2022-12-18T00:24:12.034Z,-4.89
2022-12-18T00:26:34.842Z,-4.88
2022-12-18T00:29:14.656Z,-4.86
2022-12-18T00:31:38.036Z,-4.87
2022-12-18T00:34:00.429Z,-4.83
2022-12-18T00:36:28.852Z,-4.87
2022-12-18T00:38:51.283Z,-4.88
2022-12-18T00:41:35.435Z,-4.84
2022-12-18T00:43:58.779Z,-4.87
2022-12-18T00:46:22.363Z,-4.82
2022-12-18T00:48:44.665Z,-4.85
2022-12-18T00:51:09.870Z,-4.88
2022-12-18T00:53:32.233Z,-4.80
2022-12-18T00:55:54.704Z,-4.76
2022-12-18T00:58:17.698Z,-4.82
2022-12-18T01:00:39.984Z,-4.82
2022-12-18T01:03:02.544Z,-4.83
2022-12-18T01:05:24.974Z,-4.81
2022-12-18T01:07:47.458Z,-4.86
2022-12-18T01:10:11.508Z,-4.83
2022-12-18T01:12:34.385Z,-4.86
2022-12-18T01:14:56.825Z,-4.83
2022-12-18T01:17:19.164Z,-4.86
2022-12-18T01:19:41.730Z,-4.91
2022-12-18T01:22:04.408Z,-4.86
2022-12-18T01:24:26.803Z,-4.85
2022-12-18T01:26:49.153Z,-4.80
2022-12-18T01:29:11.489Z,-4.75
2022-12-18T01:31:34.906Z,-4.66
2022-12-18T01:33:57.879Z,-4.66
2022-12-18T01:36:28.855Z,-4.69
2022-12-18T01:38:51.422Z,-4.74
2022-12-18T01:41:14.043Z,-4.73
2022-12-18T01:44:02.848Z,-4.70
2022-12-18T01:46:25.618Z,-4.66
2022-12-18T01:48:55.155Z,-4.73
2022-12-18T01:51:17.480Z,-4.77
2022-12-18T01:53:41.746Z,-4.73
2022-12-18T01:56:04.441Z,-4.71
2022-12-18T01:59:01.037Z,-4.71
2022-12-18T02:01:24.821Z,-4.71
2022-12-18T02:03:47.317Z,-4.70
2022-12-18T02:06:34.603Z,-4.71
2022-12-18T02:09:07.349Z,-4.67
2022-12-18T02:11:41.317Z,-4.60
2022-12-18T02:14:24.855Z,-4.50
2022-12-18T02:17:04.438Z,-4.50
2022-12-18T02:19:57.495Z,-4.60
2022-12-18T02:23:00.152Z,-4.63
2022-12-18T02:26:07.173Z,-4.57
2022-12-18T02:28:33.174Z,-4.50
2022-12-18T02:30:55.616Z,-4.54
2022-12-18T02:33:18.014Z,-4.58
2022-12-18T02:35:40.408Z,-4.57
2022-12-18T02:38:03.489Z,-4.54
2022-12-18T02:40:26.683Z,-4.60
2022-12-18T02:42:49.088Z,-4.59
2022-12-18T02:45:11.637Z,-4.63
2022-12-18T02:47:37.237Z,-4.69
2022-12-18T02:50:05.580Z,-4.72
2022-12-18T02:52:41.531Z,-4.73
2022-12-18T02:55:28.772Z,-4.71
2022-12-18T02:58:18.241Z,-4.74
2022-12-18T03:01:09.566Z,-4.78
2022-12-18T03:03:56.805Z,-4.81
2022-12-18T03:06:31.283Z,-4.78
2022-12-18T03:08:59.471Z,-4.72
2022-12-18T03:11:41.750Z,-4.73
2022-12-18T03:14:04.180Z,-4.76
2022-12-18T03:16:29.382Z,-4.77
2022-12-18T03:19:10.591Z,-4.83
2022-12-18T03:21:48.329Z,-4.80
2022-12-18T03:24:11.121Z,-4.83
2022-12-18T03:26:33.475Z,-4.89
2022-12-18T03:29:00.791Z,-4.89
2022-12-18T03:31:24.721Z,-4.88
2022-12-18T03:34:02.186Z,-4.88
2022-12-18T03:36:24.784Z,-4.86
2022-12-18T03:38:47.532Z,-4.86
2022-12-18T03:41:34.893Z,-4.85
2022-12-18T03:44:16.184Z,-4.86
2022-12-18T03:46:49.372Z,-4.86
2022-12-18T03:49:16.930Z,-4.87
2022-12-18T03:51:55.681Z,-4.91
2022-12-18T03:54:18.057Z,-4.87
2022-12-18T03:56:58.694Z,-4.88
2022-12-18T03:59:21.017Z,-4.87
2022-12-18T04:01:47.583Z,-4.88
2022-12-18T04:04:11.563Z,-4.85
2022-12-18T04:06:36.837Z,-4.84
2022-12-18T04:08:59.388Z,-4.87
2022-12-18T04:11:21.743Z,-4.85
2022-12-18T04:13:44.356Z,-4.84
2022-12-18T04:16:07.199Z,-4.81
2022-12-18T04:18:29.640Z,-4.80
2022-12-18T04:20:52.102Z,-4.78
2022-12-18T04:23:14.508Z,-4.78
2022-12-18T04:25:36.851Z,-4.84
2022-12-18T04:27:59.292Z,-4.82
2022-12-18T04:30:21.617Z,-4.85
2022-12-18T04:32:47.727Z,-4.85
2022-12-18T04:35:13.021Z,-4.84
2022-12-18T04:37:35.460Z,-4.91
2022-12-18T04:39:57.792Z,-4.90
2022-12-18T04:42:20.099Z,-4.91
2022-12-18T04:44:42.520Z,-4.92
2022-12-18T04:47:05.063Z,-4.91
2022-12-18T04:49:27.482Z,-4.92
2022-12-18T04:51:49.903Z,-4.93
2022-12-18T04:54:12.472Z,-4.99
2022-12-18T04:56:34.799Z,-4.98
2022-12-18T04:58:58.278Z,-4.96
2022-12-18T05:01:20.856Z,-4.97
2022-12-18T05:03:44.115Z,-4.98
2022-12-18T05:06:07.455Z,-4.97
2022-12-18T05:08:29.744Z,-4.98
2022-12-18T05:11:10.063Z,-4.93
2022-12-18T05:13:34.319Z,-4.95
2022-12-18T05:15:56.875Z,-5.02
2022-12-18T05:18:19.286Z,-5.05
2022-12-18T05:20:41.632Z,-5.10
2022-12-18T05:23:05.075Z,-5.11
2022-12-18T05:25:27.622Z,-5.08
2022-12-18T05:27:49.985Z,-5.21
2022-12-18T05:30:13.259Z,-5.27
2022-12-18T05:32:35.646Z,-5.24
2022-12-18T05:34:58.420Z,-5.29
2022-12-18T05:37:21.878Z,-5.30
2022-12-18T05:39:45.229Z,-5.35
2022-12-18T05:42:07.645Z,-5.34
2022-12-18T05:44:30.004Z,-5.42
2022-12-18T05:46:52.332Z,-5.42
2022-12-18T05:49:14.991Z,-5.53
2022-12-18T05:51:37.291Z,-5.51
2022-12-18T05:53:59.632Z,-5.52
2022-12-18T05:56:23.061Z,-5.64
2022-12-18T05:58:45.487Z,-5.66
2022-12-18T06:01:17.717Z,-5.69
2022-12-18T06:03:40.664Z,-5.76
2022-12-18T06:06:03.390Z,-5.83
2022-12-18T06:08:25.796Z,-5.83
2022-12-18T06:10:52.785Z,-5.91
2022-12-18T06:13:15.201Z,-6.00
2022-12-18T06:15:38.372Z,-5.98
2022-12-18T06:18:02.406Z,-6.05
2022-12-18T06:20:26.899Z,-6.08
2022-12-18T06:22:53.399Z,-6.08
2022-12-18T06:25:15.718Z,-6.09
2022-12-18T06:27:38.344Z,-6.12
2022-12-18T06:30:01.696Z,-6.12
2022-12-18T06:32:24.180Z,-6.17
2022-12-18T06:34:46.519Z,-6.17
2022-12-18T06:37:08.863Z,-6.19
2022-12-18T06:39:32.548Z,-6.21
2022-12-18T06:41:54.909Z,-6.15
2022-12-18T06:44:17.375Z,-6.16
2022-12-18T06:46:39.748Z,-6.23
2022-12-18T06:49:02.307Z,-6.34
2022-12-18T06:51:25.179Z,-6.43
2022-12-18T06:53:47.667Z,-6.45
2022-12-18T06:56:11.089Z,-6.51
2022-12-18T06:58:34.033Z,-6.55
2022-12-18T07:01:04.524Z,-6.58
2022-12-18T07:03:26.944Z,-6.65
2022-12-18T07:05:49.284Z,-6.64
2022-12-18T07:08:11.636Z,-6.59
2022-12-18T07:10:34.019Z,-6.63
2022-12-18T07:12:56.441Z,-6.69
2022-12-18T07:15:18.813Z,-6.70
2022-12-18T07:17:41.161Z,-6.74
2022-12-18T07:20:04.183Z,-6.73
2022-12-18T07:22:27.208Z,-6.83
2022-12-18T07:24:50.061Z,-6.89
2022-12-18T07:27:12.410Z,-7.00
2022-12-18T07:29:34.780Z,-7.03
2022-12-18T07:31:57.181Z,-7.03
2022-12-18T07:34:19.615Z,-7.05
2022-12-18T07:36:42.123Z,-7.05
2022-12-18T07:39:04.519Z,-7.00
2022-12-18T07:41:26.859Z,-7.04
2022-12-18T07:43:49.293Z,-6.98
2022-12-18T07:46:13.178Z,-7.11
2022-12-18T07:48:35.920Z,-7.18
2022-12-18T07:51:06.425Z,-7.26
2022-12-18T07:53:28.761Z,-7.30
2022-12-18T07:56:25.537Z,-7.38
2022-12-18T07:58:38.948Z,-7.33
2022-12-18T08:01:11.919Z,-7.36
2022-12-18T08:03:34.400Z,-7.35
2022-12-18T08:06:04.483Z,-7.39
2022-12-18T08:08:26.880Z,-7.36
2022-12-18T08:10:49.235Z,-7.38
2022-12-18T08:13:11.722Z,-7.36
2022-12-18T08:15:34.102Z,-7.34
2022-12-18T08:17:59.495Z,-7.31
2022-12-18T08:20:21.896Z,-7.22
2022-12-18T08:22:25.014Z,-7.23
2022-12-18T08:24:27.095Z,-7.27
2022-12-18T08:26:31.221Z,-7.27
2022-12-18T08:28:33.563Z,-7.29
2022-12-18T08:30:37.274Z,-7.36
2022-12-18T08:32:39.314Z,-7.26
2022-12-18T08:34:42.299Z,-7.34
2022-12-18T08:36:44.300Z,-7.31
2022-12-18T08:38:47.134Z,-7.29
2022-12-18T08:40:49.520Z,-7.28
2022-12-18T08:43:12.068Z,-7.25
2022-12-18T08:45:14.837Z,-7.18
2022-12-18T08:47:17.100Z,-7.22
2022-12-18T08:49:19.423Z,-7.15
2022-12-18T08:51:21.731Z,-7.24
2022-12-18T08:53:25.200Z,-7.23
2022-12-18T08:55:27.376Z,-7.28
2022-12-18T08:57:29.505Z,-7.29
2022-12-18T08:59:31.895Z,-7.30
2022-12-18T09:01:34.601Z,-7.32
2022-12-18T09:03:38.465Z,-7.31
2022-12-18T09:05:41.168Z,-7.29
2022-12-18T09:07:43.199Z,-7.25
2022-12-18T09:09:45.675Z,-7.27
2022-12-18T09:11:48.198Z,-7.26
2022-12-18T09:13:50.672Z,-7.19
2022-12-18T09:15:54.029Z,-7.12
2022-12-18T09:17:56.350Z,-7.12
2022-12-18T09:20:01.619Z,-7.08
2022-12-18T09:22:03.598Z,-7.10
2022-12-18T09:24:08.769Z,-7.16
2022-12-18T09:26:11.662Z,-7.08
2022-12-18T09:28:18.618Z,-7.01
2022-12-18T09:30:23.634Z,-6.98
2022-12-18T09:32:27.804Z,-6.91
2022-12-18T09:34:30.434Z,-6.91
2022-12-18T09:36:33.244Z,-6.87
2022-12-18T09:38:35.988Z,-6.85
2022-12-18T09:40:46.376Z,-6.87
2022-12-18T09:42:58.814Z,-6.84
2022-12-18T09:45:02.414Z,-6.76
2022-12-18T09:47:21.349Z,-6.75
2022-12-18T09:49:24.898Z,-6.79
2022-12-18T09:51:36.261Z,-6.78
2022-12-18T09:53:38.952Z,-6.78
2022-12-18T09:55:43.860Z,-6.71
2022-12-18T09:57:50.514Z,-6.64
2022-12-18T10:00:08.341Z,-6.60
2022-12-18T10:02:25.271Z,-6.50
2022-12-18T10:04:27.635Z,-6.49
2022-12-18T10:07:42.241Z,-6.46
2022-12-18T10:10:02.384Z,-6.47
2022-12-18T10:12:26.929Z,-6.51
2022-12-18T10:14:41.276Z,-6.47
2022-12-18T10:16:55.651Z,-6.50
2022-12-18T10:19:19.462Z,-6.56
2022-12-18T10:21:51.990Z,-6.61
2022-12-18T10:24:24.759Z,-6.59
2022-12-18T10:26:28.050Z,-6.51
2022-12-18T10:28:32.333Z,-6.39
2022-12-18T10:30:34.741Z,-6.28
2022-12-18T10:32:38.330Z,-6.19
2022-12-18T10:34:48.826Z,-6.24
2022-12-18T10:36:53.684Z,-6.31
2022-12-18T10:39:15.544Z,-6.20
2022-12-18T10:41:23.165Z,-6.20
2022-12-18T10:43:36.500Z,-6.31
2022-12-18T10:45:38.673Z,-6.36
2022-12-18T10:47:48.150Z,-6.33
2022-12-18T10:49:53.629Z,-6.43
2022-12-18T10:52:27.577Z,-6.38
2022-12-18T10:54:35.231Z,-6.43
2022-12-18T10:56:37.781Z,-6.45
2022-12-18T10:58:40.757Z,-6.41
2022-12-18T11:00:46.582Z,-6.37
2022-12-18T11:02:50.675Z,-6.36
2022-12-18T11:04:53.477Z,-6.43
2022-12-18T11:07:04.032Z,-6.49
2022-12-18T11:09:27.335Z,-6.56
2022-12-18T11:11:29.557Z,-6.53
2022-12-18T11:13:32.580Z,-6.53
2022-12-18T11:15:35.027Z,-6.50
2022-12-18T11:17:37.443Z,-6.39
2022-12-18T11:19:40.886Z,-6.45
2022-12-18T11:21:43.488Z,-6.41
2022-12-18T11:23:53.973Z,-6.36
2022-12-18T11:26:01.428Z,-6.26
2022-12-18T11:28:30.249Z,-6.25
2022-12-18T11:30:37.563Z,-6.25
2022-12-18T11:32:41.339Z,-6.30
2022-12-18T11:34:47.046Z,-6.30
2022-12-18T11:36:49.596Z,-6.29
2022-12-18T11:38:53.514Z,-6.24
2022-12-18T11:41:50.740Z,-6.22
2022-12-18T11:44:11.510Z,-6.24
2022-12-18T11:46:54.198Z,-6.16
2022-12-18T11:49:35.362Z,-6.19
2022-12-18T11:52:26.618Z,-6.13
2022-12-18T11:54:52.455Z,-6.16
2022-12-18T11:58:02.313Z,-6.10
2022-12-18T12:00:24.778Z,-6.12
2022-12-18T12:03:19.822Z,-6.16
2022-12-18T12:06:54.811Z,-6.26
2022-12-18T12:09:20.725Z,-6.24
2022-12-18T12:11:44.149Z,-6.26
2022-12-18T12:14:01.784Z,-6.29
2022-12-18T12:16:34.256Z,-6.33
2022-12-18T12:18:55.264Z,-6.31
2022-12-18T12:21:28.274Z,-6.35
2022-12-18T12:24:05.576Z,-6.36
2022-12-18T12:26:44.065Z,-6.44
2022-12-18T12:28:50.964Z,-6.40
2022-12-18T12:31:51.676Z,-6.54
2022-12-18T12:34:03.532Z,-6.58
2022-12-18T12:36:45.649Z,-6.65
2022-12-18T12:38:56.222Z,-6.74
2022-12-18T12:41:32.883Z,-6.80
2022-12-18T12:43:50.633Z,-6.86
2022-12-18T12:46:13.631Z,-6.77
2022-12-18T12:48:38.311Z,-6.71
2022-12-18T12:50:41.311Z,-6.68
2022-12-18T12:52:46.238Z,-6.79
2022-12-18T12:54:48.799Z,-6.88
2022-12-18T12:56:59.479Z,-6.88
2022-12-18T12:59:30.904Z,-6.93
2022-12-18T13:01:55.578Z,-6.90
2022-12-18T13:04:24.155Z,-6.93
2022-12-18T13:06:44.570Z,-6.93
2022-12-18T13:08:59.486Z,-7.05
2022-12-18T13:11:20.990Z,-7.04
2022-12-18T13:13:24.820Z,-7.16
2022-12-18T13:15:40.880Z,-7.19
2022-12-18T13:17:44.234Z,-7.14
2022-12-18T13:19:50.643Z,-7.12
2022-12-18T13:21:59.414Z,-7.21
2022-12-18T13:24:27.283Z,-7.19
2022-12-18T13:26:32.334Z,-7.24
2022-12-18T13:28:34.927Z,-7.27
2022-12-18T13:30:37.332Z,-7.30
2022-12-18T13:32:39.591Z,-7.27
2022-12-18T13:34:41.631Z,-7.24
2022-12-18T13:36:43.963Z,-7.22
2022-12-18T13:40:09.814Z,-7.15
2022-12-18T13:42:36.243Z,-7.12
2022-12-18T13:44:41.879Z,-7.13
2022-12-18T13:46:47.311Z,-7.15
2022-12-18T13:49:14.887Z,-7.21
2022-12-18T13:51:19.129Z,-7.25
2022-12-18T13:53:27.058Z,-7.23
2022-12-18T13:55:30.805Z,-7.25
2022-12-18T13:57:41.812Z,-7.22
2022-12-18T13:59:45.559Z,-7.20
2022-12-18T14:02:02.894Z,-7.16
2022-12-18T14:04:30.046Z,-7.15
2022-12-18T14:06:32.235Z,-7.05
2022-12-18T14:08:40.088Z,-7.08
2022-12-18T14:10:48.997Z,-7.15
2022-12-18T14:13:00.898Z,-7.11
2022-12-18T14:15:07.867Z,-7.14
2022-12-18T14:17:15.118Z,-7.19
2022-12-18T14:19:18.703Z,-7.18
2022-12-18T14:21:35.192Z,-7.14
2022-12-18T14:23:39.316Z,-7.12
2022-12-18T14:25:47.244Z,-7.11
2022-12-18T14:28:16.499Z,-7.12
2022-12-18T14:30:28.826Z,-7.10
2022-12-18T14:32:31.146Z,-7.06
2022-12-18T14:34:33.646Z,-7.04
2022-12-18T14:36:36.159Z,-7.04
2022-12-18T14:38:40.113Z,-7.05
2022-12-18T14:40:43.122Z,-7.04
2022-12-18T14:42:46.872Z,-7.10
2022-12-18T14:45:12.528Z,-7.15
2022-12-18T14:47:25.399Z,-7.17
2022-12-18T14:49:35.145Z,-7.21
2022-12-18T14:51:37.371Z,-7.31
2022-12-18T14:54:01.468Z,-7.23
2022-12-18T14:56:13.590Z,-7.20
2022-12-18T14:58:17.261Z,-7.18
2022-12-18T15:00:22.017Z,-7.11
2022-12-18T15:02:29.162Z,-7.10
2022-12-18T15:04:42.067Z,-7.11
2022-12-18T15:06:46.679Z,-7.20
2022-12-18T15:08:48.875Z,-7.13
2022-12-18T15:10:52.305Z,-7.15
2022-12-18T15:12:57.344Z,-7.15
2022-12-18T15:14:59.627Z,-7.11
2022-12-18T15:17:03.422Z,-7.10
2022-12-18T15:19:08.779Z,-7.09
2022-12-18T15:21:12.276Z,-7.09
2022-12-18T15:23:26.381Z,-7.01
2022-12-18T15:25:35.564Z,-7.04
2022-12-18T15:27:38.944Z,-7.05
2022-12-18T15:29:41.303Z,-7.01
2022-12-18T15:31:43.634Z,-6.99
2022-12-18T15:34:14.214Z,-6.95
2022-12-18T15:36:21.424Z,-6.91
2022-12-18T15:38:29.170Z,-6.96
2022-12-18T15:40:31.499Z,-6.97
2022-12-18T15:42:52.576Z,-6.94
2022-12-18T15:44:54.927Z,-6.96
2022-12-18T15:46:57.249Z,-6.92
2022-12-18T15:49:02.723Z,-6.89
2022-12-18T15:51:06.467Z,-6.86
2022-12-18T15:53:09.564Z,-6.88
2022-12-18T15:55:35.302Z,-6.89
2022-12-18T15:57:38.910Z,-6.97
2022-12-18T15:59:41.509Z,-7.03
2022-12-18T16:01:47.003Z,-7.02
2022-12-18T16:03:49.719Z,-7.06
2022-12-18T16:05:51.941Z,-7.08
2022-12-18T16:07:54.526Z,-7.06
2022-12-18T16:09:59.416Z,-7.07
2022-12-18T16:12:06.557Z,-7.08
2022-12-18T16:14:29.868Z,-7.06
2022-12-18T16:18:49.312Z,-7.08
2022-12-18T16:20:52.101Z,-7.09
2022-12-18T16:22:54.491Z,-7.06
2022-12-18T16:25:01.982Z,-7.06
2022-12-18T16:27:04.316Z,-7.04
2022-12-18T16:29:06.357Z,-7.02
2022-12-18T16:31:12.261Z,-7.03
2022-12-18T16:33:14.642Z,-7.00
2022-12-18T16:35:17.321Z,-6.96
2022-12-18T16:37:20.075Z,-6.94
2022-12-18T16:39:22.482Z,-6.92
2022-12-18T16:41:34.945Z,-6.92
2022-12-18T16:43:37.207Z,-6.91
2022-12-18T16:45:42.100Z,-6.90
2022-12-18T16:47:44.271Z,-6.85
2022-12-18T16:49:47.018Z,-6.84
2022-12-18T16:51:49.166Z,-6.78
2022-12-18T16:53:53.436Z,-6.82
2022-12-18T16:56:05.808Z,-6.72
2022-12-18T16:58:09.621Z,-6.71
2022-12-18T17:00:13.563Z,-6.71
2022-12-18T17:02:39.875Z,-6.71
2022-12-18T17:04:43.043Z,-6.73
2022-12-18T17:06:46.112Z,-6.75
2022-12-18T17:08:48.564Z,-6.76
2022-12-18T17:10:50.980Z,-6.74
2022-12-18T17:12:53.543Z,-6.74
2022-12-18T17:14:56.492Z,-6.67
2022-12-18T17:17:20.377Z,-6.69
2022-12-18T17:19:26.028Z,-6.68
2022-12-18T17:21:29.495Z,-6.61
2022-12-18T17:23:34.415Z,-6.58
2022-12-18T17:25:41.407Z,-6.63
2022-12-18T17:27:43.622Z,-6.67
2022-12-18T17:29:48.238Z,-6.66
2022-12-18T17:31:51.203Z,-6.64
2022-12-18T17:33:53.948Z,-6.64
2022-12-18T17:35:59.257Z,-6.70
2022-12-18T17:38:01.841Z,-6.71
2022-12-18T17:40:06.766Z,-6.71
2022-12-18T17:42:15.551Z,-6.70
2022-12-18T17:44:37.676Z,-6.77
2022-12-18T17:47:00.192Z,-6.81
2022-12-18T17:49:24.504Z,-6.76
2022-12-18T17:51:47.533Z,-6.81
2022-12-18T17:54:12.964Z,-6.74
2022-12-18T17:56:38.600Z,-6.81
2022-12-18T17:59:01.239Z,-6.76
2022-12-18T18:01:12.540Z,-6.73
2022-12-18T18:03:20.670Z,-6.78
2022-12-18T18:05:23.094Z,-6.81
2022-12-18T18:07:25.703Z,-6.85
2022-12-18T18:09:30.862Z,-6.85
2022-12-18T18:11:52.104Z,-6.85
2022-12-18T18:14:02.893Z,-6.90
2022-12-18T18:16:06.326Z,-6.92
2022-12-18T18:18:08.709Z,-6.93
2022-12-18T18:20:20.709Z,-6.92
2022-12-18T18:22:24.801Z,-6.90
2022-12-18T18:24:27.512Z,-6.87
2022-12-18T18:26:32.179Z,-6.95
2022-12-18T18:28:35.724Z,-6.92
2022-12-18T18:30:38.200Z,-7.00
2022-12-18T18:32:40.875Z,-7.00
2022-12-18T18:34:44.818Z,-7.02
2022-12-18T18:36:51.166Z,-7.02
2022-12-18T18:38:54.236Z,-7.05
2022-12-18T18:41:04.575Z,-7.11
2022-12-18T18:43:07.264Z,-7.11
2022-12-18T18:45:10.347Z,-7.19
2022-12-18T18:47:14.237Z,-7.15
2022-12-18T18:49:18.939Z,-7.13
2022-12-18T18:51:27.785Z,-7.14
2022-12-18T18:53:39.422Z,-7.19
2022-12-18T18:55:42.499Z,-7.22
2022-12-18T18:57:45.623Z,-7.18
2022-12-18T18:59:48.816Z,-7.27
2022-12-18T19:01:52.870Z,-7.29
2022-12-18T19:03:55.168Z,-7.46
2022-12-18T19:06:00.121Z,-7.42
2022-12-18T19:08:02.373Z,-7.49
2022-12-18T19:10:05.592Z,-7.56
2022-12-18T19:12:26.074Z,-7.58
2022-12-18T19:26:33.819Z,-7.70
2022-12-18T19:28:36.463Z,-7.69
2022-12-18T19:30:39.662Z,-7.69
2022-12-18T19:32:42.181Z,-7.72
2022-12-18T19:34:44.389Z,-7.67
2022-12-18T19:36:49.389Z,-7.68
2022-12-18T19:38:52.260Z,-7.62
2022-12-18T19:40:54.650Z,-7.65
2022-12-18T19:42:58.029Z,-7.65
2022-12-18T19:45:00.565Z,-7.67
2022-12-18T19:47:03.002Z,-7.62
2022-12-18T19:49:05.339Z,-7.66
2022-12-18T19:51:22.517Z,-7.60
2022-12-18T19:53:25.057Z,-7.66
2022-12-18T19:55:27.380Z,-7.63
2022-12-18T19:57:29.815Z,-7.60
2022-12-18T19:59:32.174Z,-7.73
2022-12-18T20:01:35.176Z,-7.80
2022-12-18T20:03:38.057Z,-7.79
2022-12-18T20:05:41.202Z,-7.74
2022-12-18T20:07:44.382Z,-7.67
2022-12-18T20:09:49.364Z,-7.67
2022-12-18T20:11:55.222Z,-7.70
2022-12-18T20:13:58.240Z,-7.73
2022-12-18T20:16:00.615Z,-7.76
2022-12-18T20:18:05.766Z,-7.69
2022-12-18T20:20:09.625Z,-7.71
2022-12-18T20:22:12.686Z,-7.69
2022-12-18T20:24:15.281Z,-7.69
2022-12-18T20:26:18.126Z,-7.75
2022-12-18T20:28:58.453Z,-7.76
2022-12-18T20:34:41.272Z,-7.86
2022-12-18T20:37:13.963Z,-7.95
2022-12-18T20:39:55.159Z,-7.97
2022-12-18T20:41:57.713Z,-7.97
2022-12-18T20:43:59.911Z,-7.99
2022-12-18T20:46:06.714Z,-7.99
2022-12-18T20:48:09.122Z,-7.94
2022-12-18T20:50:23.100Z,-7.89
2022-12-18T20:52:25.413Z,-7.88
2022-12-18T20:54:27.797Z,-7.89
2022-12-18T20:56:32.586Z,-7.85
2022-12-18T20:58:35.816Z,-7.84
2022-12-18T21:00:38.026Z,-7.79
2022-12-18T21:02:45.244Z,-7.78
2022-12-18T21:04:47.556Z,-7.79
2022-12-18T21:06:54.140Z,-7.77
2022-12-18T21:33:23.412Z,-7.80
2022-12-18T21:41:10.019Z,-7.78
2022-12-18T21:43:31.802Z,-7.77
2022-12-18T21:45:34.504Z,-7.70
2022-12-18T21:47:40.058Z,-7.77
2022-12-18T21:49:45.730Z,-7.74
2022-12-18T21:51:53.417Z,-7.74
2022-12-18T21:53:56.662Z,-7.68
2022-12-18T21:56:03.826Z,-7.68
2022-12-18T21:58:18.438Z,-7.65
2022-12-18T22:00:21.257Z,-7.68
2022-12-18T22:02:25.453Z,-7.66
2022-12-18T22:04:28.599Z,-7.64
2022-12-18T22:06:32.188Z,-7.59
2022-12-18T22:08:35.063Z,-7.60
2022-12-18T22:10:37.850Z,-7.59
2022-12-18T22:12:43.362Z,-7.58
2022-12-18T22:14:47.515Z,-7.63
2022-12-18T22:16:54.764Z,-7.68
2022-12-18T22:18:57.125Z,-7.59
2022-12-18T22:21:05.936Z,-7.61
2022-12-18T22:23:09.169Z,-7.57
2022-12-18T22:25:11.640Z,-7.57
2022-12-18T22:27:13.884Z,-7.54
2022-12-18T22:29:43.877Z,-7.53
2022-12-18T22:32:05.341Z,-7.60
2022-12-18T22:34:25.855Z,-7.66
2022-12-18T22:36:48.567Z,-7.63
2022-12-18T22:39:17.804Z,-7.62
2022-12-18T22:41:40.363Z,-7.63
2022-12-18T22:44:02.765Z,-7.59
2022-12-18T22:46:25.541Z,-7.60
2022-12-18T22:48:47.822Z,-7.58
2022-12-18T22:51:17.496Z,-7.64
2022-12-18T22:53:39.887Z,-7.62
2022-12-18T22:56:05.023Z,-7.61
2022-12-18T22:58:27.322Z,-7.59
2022-12-18T23:00:49.656Z,-7.60
2022-12-18T23:03:12.070Z,-7.59
2022-12-18T23:05:34.491Z,-7.59
2022-12-18T23:07:57.657Z,-7.61
2022-12-18T23:10:20.300Z,-7.63
2022-12-18T23:12:42.596Z,-7.61
2022-12-18T23:15:05.707Z,-7.62
2022-12-18T23:17:28.764Z,-7.62
2022-12-18T23:19:51.127Z,-7.58
2022-12-18T23:22:13.444Z,-7.59
2022-12-18T23:24:35.763Z,-7.57
2022-12-18T23:26:58.101Z,-7.57
2022-12-18T23:29:20.597Z,-7.53
2022-12-18T23:31:43.046Z,-7.56
2022-12-18T23:34:05.737Z,-7.47
2022-12-18T23:36:28.334Z,-7.48
2022-12-18T23:38:56.988Z,-7.51
2022-12-18T23:41:20.737Z,-7.47
2022-12-18T23:43:43.204Z,-7.50
2022-12-18T23:46:25.262Z,-7.45
2022-12-18T23:48:47.755Z,-7.52
2022-12-18T23:51:11.221Z,-7.50
2022-12-18T23:53:33.552Z,-7.49
2022-12-18T23:55:55.879Z,-7.50
2022-12-18T23:58:20.855Z,-7.44
